Reefer Bay — V2CY — position and weather

sailwx.info

Track history (hours):
 
Tides and Currents Weather Stations Pressure Air Temp Water Temp Dewpoint Dewpoint Depression Visibility Wind Speed Wind Dir Waves Ship Positions

Reefer Bay

Last reported at 2017-Sep-18 02:47 UTC. Time now 2017-Sep-25 15:22 UTC.
Position N 04°20' W 003°11'.

Length 220 m; draft 7.9 m.

Type: Ship. MMSI: 304504000.

Date/timePositionNaut miles runAvg speedWind from/ knotsBaromVisibWave heightAir tempDewpointWater temp
2017-Sep-18 02:47N 04°20' W 003°11'412.0
2017-Sep-18 02:27N 04°20' W 003°07'612.3
2017-Sep-18 01:57N 04°19' W 003°01'612.3
2017-Sep-18 01:30N 04°18' W 002°55'812.3
2017-Sep-18 00:51N 04°18' W 002°47'412.0
2017-Sep-18 00:30N 04°17' W 002°43'612.5
2017-Sep-18 00:00N 04°16' W 002°37'612.6
2017-Sep-17 23:30N 04°15' W 002°31'712.7
2017-Sep-17 22:59N 04°15' W 002°24'613.3
2017-Sep-17 22:30N 04°14' W 002°18'713.5
2017-Sep-17 21:59N 04°13' W 002°11'713.7
2017-Sep-17 21:28N 04°13' W 002°04'  
Track history (hours):
 
Tides and Currents Weather Stations Pressure Air Temp Water Temp Dewpoint Dewpoint Depression Visibility Wind Speed Wind Dir Waves Ship Positions

Reefer Bay

Last reported at 2017-Sep-18 02:47 UTC. Time now 2017-Sep-25 15:22 UTC.
Position N 04°20' W 003°11'.

Length 220 m; draft 7.9 m.

Type: Ship. MMSI: 304504000.

Date/timePositionNaut miles runAvg speedWind from/ knotsBaromVisibWave heightAir tempDewpointWater temp
2017-Sep-18 02:47N 04°20' W 003°11'412.0
2017-Sep-18 02:27N 04°20' W 003°07'612.3
2017-Sep-18 01:57N 04°19' W 003°01'612.3
2017-Sep-18 01:30N 04°18' W 002°55'812.3
2017-Sep-18 00:51N 04°18' W 002°47'412.0
2017-Sep-18 00:30N 04°17' W 002°43'612.5
2017-Sep-18 00:00N 04°16' W 002°37'612.6
2017-Sep-17 23:30N 04°15' W 002°31'712.7
2017-Sep-17 22:59N 04°15' W 002°24'613.3
2017-Sep-17 22:30N 04°14' W 002°18'713.5
2017-Sep-17 21:59N 04°13' W 002°11'713.7
2017-Sep-17 21:28N 04°13' W 002°04'  

Dump ship's entire track history